createdAt,value
2018-09-23T00:00:32.177Z,0.00
2018-09-23T00:01:32.087Z,0.00
2018-09-23T00:02:32.021Z,0.00
2018-09-23T00:03:31.933Z,0.00
2018-09-23T00:04:31.861Z,0.00
2018-09-23T00:05:31.780Z,0.00
2018-09-23T00:06:31.706Z,0.00
2018-09-23T00:07:31.626Z,0.00
2018-09-23T00:08:31.555Z,0.00
2018-09-23T00:09:31.478Z,0.00
2018-09-23T00:10:31.402Z,0.00
2018-09-23T00:11:31.315Z,0.00
2018-09-23T00:12:31.252Z,0.00
2018-09-23T00:13:31.164Z,0.00
2018-09-23T00:14:31.094Z,0.00
2018-09-23T00:15:31.005Z,0.00
2018-09-23T00:16:30.936Z,0.00
2018-09-23T00:17:30.854Z,0.00
2018-09-23T00:18:30.787Z,0.00
2018-09-23T00:19:30.700Z,0.00
2018-09-23T00:20:30.628Z,0.00
2018-09-23T00:21:30.547Z,0.00
2018-09-23T00:22:30.476Z,0.00
2018-09-23T00:23:30.390Z,0.00
2018-09-23T00:24:30.319Z,0.00
2018-09-23T00:25:30.238Z,0.00
2018-09-23T00:26:30.164Z,0.00
2018-09-23T00:27:30.078Z,0.00
2018-09-23T00:28:30.008Z,0.00
2018-09-23T00:29:29.927Z,0.00
2018-09-23T00:30:29.858Z,0.00
2018-09-23T00:31:29.771Z,0.00
2018-09-23T00:32:29.701Z,0.00
2018-09-23T00:33:29.618Z,0.00
2018-09-23T00:34:29.546Z,0.00
2018-09-23T00:35:29.462Z,0.00
2018-09-23T00:36:29.391Z,0.00
2018-09-23T00:37:29.308Z,0.00
2018-09-23T00:38:29.237Z,0.00
2018-09-23T00:39:29.151Z,0.00
2018-09-23T00:40:29.082Z,0.00
2018-09-23T00:41:29.000Z,0.00
2018-09-23T00:42:28.928Z,0.00
2018-09-23T00:43:28.841Z,0.00
2018-09-23T00:44:28.774Z,0.00
2018-09-23T00:45:28.688Z,0.00
2018-09-23T00:46:28.616Z,0.00
2018-09-23T00:47:28.534Z,0.00
2018-09-23T00:48:28.466Z,0.00
2018-09-23T00:49:28.379Z,0.00
2018-09-23T00:50:28.311Z,0.00
2018-09-23T00:51:28.226Z,0.00
2018-09-23T00:52:28.152Z,0.00
2018-09-23T00:53:28.070Z,0.00
2018-09-23T00:54:28.002Z,0.00
2018-09-23T00:55:27.915Z,0.00
2018-09-23T00:56:27.844Z,0.00
2018-09-23T00:57:27.759Z,0.00
2018-09-23T00:58:27.691Z,0.00
2018-09-23T00:59:27.612Z,0.00
2018-09-23T01:00:27.534Z,0.00
2018-09-23T01:01:27.451Z,0.00
2018-09-23T01:02:27.376Z,0.00
2018-09-23T01:03:27.295Z,0.00
2018-09-23T01:04:27.224Z,0.00
2018-09-23T01:05:27.142Z,0.00
2018-09-23T01:06:27.072Z,0.00
2018-09-23T01:07:26.990Z,0.00
2018-09-23T01:08:26.914Z,0.00
2018-09-23T01:09:26.836Z,0.00
2018-09-23T01:10:26.762Z,0.00
2018-09-23T01:11:26.678Z,0.00
2018-09-23T01:12:26.602Z,0.00
2018-09-23T01:13:26.521Z,0.00
2018-09-23T01:14:26.464Z,0.00
2018-09-23T01:15:26.366Z,0.00
2018-09-23T01:16:26.298Z,0.00
2018-09-23T01:17:26.212Z,0.00
2018-09-23T01:18:26.143Z,0.00
2018-09-23T01:19:26.058Z,0.00
2018-09-23T01:20:25.988Z,0.00
2018-09-23T01:21:25.908Z,0.00
2018-09-23T01:22:25.837Z,0.00
2018-09-23T01:23:25.748Z,0.00
2018-09-23T01:24:25.680Z,0.00
2018-09-23T01:25:25.598Z,0.00
2018-09-23T01:26:25.525Z,0.00
2018-09-23T01:27:25.440Z,0.00
2018-09-23T01:28:25.370Z,0.00
2018-09-23T01:29:25.281Z,0.00
2018-09-23T01:30:25.216Z,0.00
2018-09-23T01:31:25.132Z,0.00
2018-09-23T01:32:25.061Z,0.00
2018-09-23T01:33:24.974Z,0.00
2018-09-23T01:34:24.905Z,0.00
2018-09-23T01:35:24.822Z,0.00
2018-09-23T01:36:24.749Z,0.00
2018-09-23T01:37:24.666Z,0.00
2018-09-23T01:38:24.606Z,0.00
2018-09-23T01:39:24.514Z,0.00
2018-09-23T01:40:24.441Z,0.00
2018-09-23T01:41:24.356Z,0.00
2018-09-23T01:42:24.288Z,0.00
2018-09-23T01:43:24.206Z,0.00
2018-09-23T01:44:24.131Z,0.00
2018-09-23T01:45:24.047Z,0.00
2018-09-23T01:46:23.977Z,0.00
2018-09-23T01:47:23.895Z,0.00
2018-09-23T01:48:23.829Z,0.00
2018-09-23T01:49:23.739Z,0.00
2018-09-23T01:50:23.671Z,0.00
2018-09-23T01:51:23.584Z,0.00
2018-09-23T01:52:23.517Z,0.00
2018-09-23T01:53:23.430Z,0.00
2018-09-23T01:54:23.360Z,0.00
2018-09-23T01:55:23.271Z,0.00
2018-09-23T01:56:23.207Z,0.00
2018-09-23T01:57:23.120Z,0.00
2018-09-23T01:58:23.050Z,0.00
2018-09-23T01:59:22.969Z,0.00
2018-09-23T02:00:22.894Z,0.00
2018-09-23T02:01:22.809Z,0.00
2018-09-23T02:02:22.740Z,0.00
2018-09-23T02:03:22.655Z,0.00
2018-09-23T02:04:22.581Z,0.00
2018-09-23T02:05:22.500Z,0.00
2018-09-23T02:06:22.434Z,0.00
2018-09-23T02:07:22.344Z,0.00
2018-09-23T02:08:22.279Z,0.00
2018-09-23T02:09:22.193Z,0.00
2018-09-23T02:10:22.122Z,0.00
2018-09-23T02:11:22.035Z,0.00
2018-09-23T02:12:21.965Z,0.00
2018-09-23T02:13:21.881Z,0.00
2018-09-23T02:14:21.811Z,0.00
2018-09-23T02:15:21.725Z,0.00
2018-09-23T02:16:21.659Z,0.00
2018-09-23T02:17:21.572Z,0.00
2018-09-23T02:18:21.503Z,0.00
2018-09-23T02:19:21.426Z,0.00
2018-09-23T02:20:21.347Z,0.00
2018-09-23T02:21:21.299Z,0.00
2018-09-23T02:22:21.194Z,0.00
2018-09-23T02:23:21.106Z,0.00
2018-09-23T02:24:21.039Z,0.00
2018-09-23T02:25:20.951Z,0.00
2018-09-23T02:26:20.880Z,0.00
2018-09-23T02:27:20.797Z,0.00
2018-09-23T02:28:20.726Z,0.00
2018-09-23T02:29:20.642Z,0.00
2018-09-23T02:30:20.571Z,0.00
2018-09-23T02:31:20.489Z,0.00
2018-09-23T02:32:20.417Z,0.00
2018-09-23T02:33:20.333Z,0.00
2018-09-23T02:34:20.267Z,0.00
2018-09-23T02:35:20.179Z,0.00
2018-09-23T02:36:20.104Z,0.00
2018-09-23T02:37:20.023Z,0.00
2018-09-23T02:38:19.952Z,0.00
2018-09-23T02:39:19.865Z,0.00
2018-09-23T02:40:19.804Z,0.00
2018-09-23T02:41:19.719Z,0.00
2018-09-23T02:42:19.642Z,0.00
2018-09-23T02:43:19.557Z,0.00
2018-09-23T02:44:19.488Z,0.00
2018-09-23T02:45:19.404Z,0.00
2018-09-23T02:46:19.333Z,0.00
2018-09-23T02:47:19.251Z,0.00
2018-09-23T02:48:19.179Z,0.00
2018-09-23T02:49:19.096Z,0.00
2018-09-23T02:50:19.024Z,0.00
2018-09-23T02:51:18.939Z,0.00
2018-09-23T02:52:18.869Z,0.00
2018-09-23T02:53:18.783Z,0.00
2018-09-23T02:54:18.714Z,0.00
2018-09-23T02:55:18.631Z,0.00
2018-09-23T02:56:18.559Z,0.00
2018-09-23T02:57:18.473Z,0.00
2018-09-23T02:58:18.408Z,0.00
2018-09-23T02:59:18.321Z,0.00
2018-09-23T03:00:18.252Z,0.00
2018-09-23T03:01:18.162Z,0.00
2018-09-23T03:02:18.093Z,0.00
2018-09-23T03:03:18.008Z,0.00
2018-09-23T03:04:17.938Z,0.00
2018-09-23T03:05:17.857Z,0.00
2018-09-23T03:06:17.788Z,0.00
2018-09-23T03:07:17.698Z,0.00
2018-09-23T03:08:17.633Z,0.00
2018-09-23T03:09:17.541Z,0.00
2018-09-23T03:10:17.479Z,0.00
2018-09-23T03:11:17.388Z,0.00
2018-09-23T03:12:17.322Z,0.00
2018-09-23T03:13:17.237Z,0.00
2018-09-23T03:14:17.167Z,0.00
2018-09-23T03:15:17.080Z,0.00
2018-09-23T03:16:17.019Z,0.00
2018-09-23T03:17:16.924Z,0.00
2018-09-23T03:18:16.856Z,0.00
2018-09-23T03:19:16.773Z,0.00
2018-09-23T03:20:16.708Z,0.00
2018-09-23T03:21:16.614Z,0.00
2018-09-23T03:22:16.550Z,0.00
2018-09-23T03:23:16.458Z,0.00
2018-09-23T03:24:16.390Z,0.00
2018-09-23T03:25:16.307Z,0.00
2018-09-23T03:26:16.241Z,0.00
2018-09-23T03:27:16.152Z,0.00
2018-09-23T03:28:16.084Z,0.00
2018-09-23T03:29:16.000Z,0.00
2018-09-23T03:30:15.929Z,0.00
2018-09-23T03:31:15.840Z,0.00
2018-09-23T03:32:15.769Z,0.00
2018-09-23T03:33:15.683Z,0.00
2018-09-23T03:34:15.610Z,0.00
2018-09-23T03:35:15.531Z,0.00
2018-09-23T03:36:15.460Z,0.00
2018-09-23T03:37:15.373Z,0.00
2018-09-23T03:38:15.308Z,0.00
2018-09-23T03:39:15.220Z,0.00
2018-09-23T03:40:15.152Z,0.00
2018-09-23T03:41:15.079Z,0.00
2018-09-23T03:42:15.994Z,0.00
2018-09-23T03:43:14.910Z,0.00
2018-09-23T03:44:15.839Z,0.00
2018-09-23T03:45:14.754Z,0.00
2018-09-23T03:46:15.716Z,0.00
2018-09-23T03:47:14.599Z,0.00
2018-09-23T03:48:15.627Z,0.00
2018-09-23T03:49:14.445Z,0.00
2018-09-23T03:50:14.412Z,0.00
2018-09-23T03:51:14.287Z,0.00
2018-09-23T03:52:14.222Z,0.00
2018-09-23T03:53:14.135Z,0.00
2018-09-23T03:54:14.130Z,0.00
2018-09-23T03:55:13.980Z,0.00
2018-09-23T03:56:13.967Z,0.00
2018-09-23T03:57:13.828Z,0.00
2018-09-23T03:58:13.756Z,0.00
2018-09-23T03:59:13.669Z,0.00
2018-09-23T04:00:13.658Z,0.00
2018-09-23T04:01:13.515Z,0.00
2018-09-23T04:02:13.442Z,0.00
2018-09-23T04:03:13.360Z,0.00
2018-09-23T04:04:13.378Z,0.00
2018-09-23T04:05:13.206Z,0.00
2018-09-23T04:06:13.186Z,0.00
2018-09-23T04:07:13.051Z,0.00
2018-09-23T04:08:12.994Z,0.00
2018-09-23T04:09:12.895Z,0.00
2018-09-23T04:10:12.906Z,0.00
2018-09-23T04:11:12.739Z,0.00
2018-09-23T04:12:12.831Z,0.00
2018-09-23T04:13:12.585Z,0.00
2018-09-23T04:14:12.623Z,0.00
2018-09-23T04:15:12.430Z,0.00
2018-09-23T04:16:12.437Z,0.00
2018-09-23T04:17:12.275Z,0.00
2018-09-23T04:18:12.243Z,0.00
2018-09-23T04:19:12.117Z,0.00
2018-09-23T04:20:12.155Z,0.00
2018-09-23T04:21:11.974Z,0.00
2018-09-23T04:22:11.964Z,0.00
2018-09-23T04:23:11.808Z,0.00
2018-09-23T04:24:11.770Z,0.00
2018-09-23T04:25:11.659Z,0.00
2018-09-23T04:26:11.689Z,0.00
2018-09-23T04:27:11.498Z,0.00
2018-09-23T04:28:11.489Z,0.00
2018-09-23T04:29:11.348Z,0.00
2018-09-23T04:30:11.298Z,0.00
2018-09-23T04:31:11.191Z,0.00
2018-09-23T04:32:11.207Z,0.00
2018-09-23T04:33:11.037Z,0.00
2018-09-23T04:34:11.024Z,0.00
2018-09-23T04:35:10.879Z,0.00
2018-09-23T04:36:10.813Z,0.00
2018-09-23T04:37:10.723Z,0.00
2018-09-23T04:38:10.670Z,0.00
2018-09-23T04:39:10.568Z,0.00
2018-09-23T04:40:10.547Z,0.00
2018-09-23T04:41:10.418Z,0.00
2018-09-23T04:42:10.355Z,0.00
2018-09-23T04:43:10.262Z,0.00
2018-09-23T04:44:10.268Z,0.00
2018-09-23T04:45:10.107Z,0.00
2018-09-23T04:46:10.077Z,0.00
2018-09-23T04:47:09.948Z,0.00
2018-09-23T04:48:09.984Z,0.00
2018-09-23T04:49:09.796Z,0.00
2018-09-23T04:50:09.796Z,0.00
2018-09-23T04:51:09.639Z,0.00
2018-09-23T04:52:09.603Z,0.00
2018-09-23T04:53:09.485Z,4.00
2018-09-23T04:54:09.414Z,0.00
2018-09-23T04:55:09.331Z,0.00
2018-09-23T04:56:09.259Z,0.00
2018-09-23T04:57:09.174Z,0.00
2018-09-23T04:58:09.131Z,0.00
2018-09-23T04:59:09.023Z,0.00
2018-09-23T05:00:09.043Z,0.00
2018-09-23T05:01:08.867Z,4.00
2018-09-23T05:02:08.849Z,4.00
2018-09-23T05:03:08.723Z,4.00
2018-09-23T05:04:08.634Z,0.00
2018-09-23T05:05:08.555Z,4.00
2018-09-23T05:06:08.574Z,4.00
2018-09-23T05:07:08.403Z,4.00
2018-09-23T05:08:08.380Z,4.00
2018-09-23T05:09:08.246Z,8.00
2018-09-23T05:10:08.185Z,4.00
2018-09-23T05:11:08.089Z,8.00
2018-09-23T05:12:08.096Z,4.00
2018-09-23T05:13:07.935Z,4.00
2018-09-23T05:14:07.963Z,8.00
2018-09-23T05:15:07.780Z,8.00
2018-09-23T05:16:07.818Z,8.00
2018-09-23T05:17:07.624Z,8.00
2018-09-23T05:18:07.622Z,8.00
2018-09-23T05:19:07.466Z,12.00
2018-09-23T05:20:07.435Z,8.00
2018-09-23T05:21:07.324Z,8.00
2018-09-23T05:22:07.347Z,12.00
2018-09-23T05:23:07.158Z,12.00
2018-09-23T05:24:07.166Z,12.00
2018-09-23T05:25:07.003Z,12.00
2018-09-23T05:26:06.961Z,12.00
2018-09-23T05:27:06.844Z,12.00
2018-09-23T05:28:06.880Z,12.00
2018-09-23T05:29:06.694Z,12.00
2018-09-23T05:30:06.683Z,12.00
2018-09-23T05:31:06.579Z,16.00
2018-09-23T05:32:06.493Z,16.00
2018-09-23T05:33:06.382Z,20.00
2018-09-23T05:34:06.401Z,20.00
2018-09-23T05:35:06.227Z,20.00
2018-09-23T05:36:06.211Z,20.00
2018-09-23T05:37:06.071Z,20.00
2018-09-23T05:38:06.025Z,16.00
2018-09-23T05:39:05.916Z,20.00
2018-09-23T05:40:05.930Z,16.00
2018-09-23T05:41:05.759Z,16.00
2018-09-23T05:42:05.745Z,16.00
2018-09-23T05:43:05.602Z,20.00
2018-09-23T05:44:05.622Z,20.00
2018-09-23T05:45:05.449Z,20.00
2018-09-23T05:46:05.460Z,20.00
2018-09-23T05:47:05.294Z,28.00
2018-09-23T05:48:05.268Z,32.00
2018-09-23T05:49:05.141Z,28.00
2018-09-23T05:50:05.178Z,28.00
2018-09-23T05:51:04.985Z,28.00
2018-09-23T05:52:04.990Z,28.00
2018-09-23T05:53:04.842Z,28.00
2018-09-23T05:54:04.759Z,28.00
2018-09-23T05:55:04.674Z,32.00
2018-09-23T05:56:04.707Z,32.00
2018-09-23T05:57:04.523Z,36.00
2018-09-23T05:58:04.516Z,36.00
2018-09-23T05:59:04.366Z,36.00
2018-09-23T06:00:04.326Z,32.00
2018-09-23T06:01:04.209Z,28.00
2018-09-23T06:02:04.140Z,28.00
2018-09-23T06:03:04.100Z,32.00
2018-09-23T06:04:03.985Z,32.00
2018-09-23T06:05:03.903Z,36.00
2018-09-23T06:06:03.828Z,44.00
2018-09-23T06:07:03.744Z,44.00
2018-09-23T06:08:03.677Z,40.00
2018-09-23T06:09:03.589Z,48.00
2018-09-23T06:10:03.519Z,60.00
2018-09-23T06:11:03.490Z,64.00
2018-09-23T06:12:03.392Z,60.00
2018-09-23T06:13:03.280Z,48.00
2018-09-23T06:14:03.207Z,44.00
2018-09-23T06:15:03.126Z,48.00
2018-09-23T06:16:03.050Z,52.00
2018-09-23T06:17:02.967Z,44.00
2018-09-23T06:18:02.928Z,52.00
2018-09-23T06:19:02.817Z,52.00
2018-09-23T06:20:02.736Z,56.00
2018-09-23T06:21:02.669Z,60.00
2018-09-23T06:22:02.585Z,48.00
2018-09-23T06:23:02.509Z,44.00
2018-09-23T06:24:02.425Z,44.00
2018-09-23T06:25:02.360Z,48.00
2018-09-23T06:26:02.270Z,48.00
2018-09-23T06:27:02.206Z,48.00
2018-09-23T06:28:02.113Z,48.00
2018-09-23T06:29:02.044Z,56.00
2018-09-23T06:30:01.965Z,64.00
2018-09-23T06:31:01.898Z,64.00
2018-09-23T06:32:01.805Z,60.00
2018-09-23T06:33:01.735Z,60.00
2018-09-23T06:34:01.656Z,56.00
2018-09-23T06:35:01.577Z,60.00
2018-09-23T06:36:01.496Z,72.00
2018-09-23T06:37:01.448Z,76.00
2018-09-23T06:38:01.342Z,76.00
2018-09-23T06:39:01.266Z,92.00
2018-09-23T06:40:01.184Z,76.00
2018-09-23T06:41:01.112Z,72.00
2018-09-23T06:42:01.027Z,64.00
2018-09-23T06:43:00.957Z,76.00
2018-09-23T06:44:00.874Z,80.00
2018-09-23T06:45:00.807Z,76.00
2018-09-23T06:46:00.719Z,72.00
2018-09-23T06:47:00.648Z,68.00
2018-09-23T06:48:00.561Z,76.00
2018-09-23T06:49:00.494Z,84.00
2018-09-23T06:50:00.414Z,88.00
2018-09-23T06:51:00.344Z,100.00
2018-09-23T06:52:00.252Z,100.00
2018-09-23T06:53:00.186Z,104.00
2018-09-23T06:54:00.098Z,104.00
2018-09-23T06:55:00.030Z,108.00
2018-09-23T06:55:59.947Z,92.00
2018-09-23T06:56:59.897Z,96.00
2018-09-23T06:57:59.789Z,92.00
2018-09-23T06:58:59.719Z,100.00
2018-09-23T06:59:59.977Z,88.00
2018-09-23T07:01:00.566Z,96.00
2018-09-23T07:01:59.486Z,116.00
2018-09-23T07:02:59.399Z,136.00
2018-09-23T07:03:59.369Z,136.00
2018-09-23T07:04:59.260Z,136.00
2018-09-23T07:05:59.280Z,116.00
2018-09-23T07:06:59.091Z,100.00
2018-09-23T07:07:59.090Z,100.00
2018-09-23T07:08:58.936Z,108.00
2018-09-23T07:09:58.900Z,116.00
2018-09-23T07:10:58.786Z,120.00
2018-09-23T07:11:58.810Z,128.00
2018-09-23T07:12:58.631Z,152.00
2018-09-23T07:13:58.618Z,132.00
2018-09-23T07:14:58.471Z,124.00
2018-09-23T07:15:58.425Z,128.00
2018-09-23T07:16:58.316Z,152.00
2018-09-23T07:17:58.351Z,192.00
2018-09-23T07:18:58.166Z,208.00
2018-09-23T07:19:58.150Z,196.00
2018-09-23T07:20:58.009Z,180.00
2018-09-23T07:21:57.966Z,160.00
2018-09-23T07:22:57.854Z,128.00
2018-09-23T07:23:58.010Z,108.00
2018-09-23T07:24:57.698Z,116.00
2018-09-23T07:25:57.629Z,128.00
2018-09-23T07:26:57.543Z,148.00
2018-09-23T07:27:57.488Z,164.00
2018-09-23T07:28:57.391Z,160.00
2018-09-23T07:29:57.431Z,164.00
2018-09-23T07:30:57.232Z,160.00
2018-09-23T07:31:57.207Z,164.00
2018-09-23T07:32:57.080Z,164.00
2018-09-23T07:33:57.114Z,156.00
2018-09-23T07:34:56.927Z,180.00
2018-09-23T07:35:56.928Z,188.00
2018-09-23T07:36:56.869Z,196.00
2018-09-23T07:37:56.743Z,200.00
2018-09-23T07:38:56.617Z,216.00
2018-09-23T07:39:56.700Z,236.00
2018-09-23T07:40:56.467Z,248.00
2018-09-23T07:41:56.459Z,252.00
2018-09-23T07:42:56.310Z,248.00
2018-09-23T07:43:56.265Z,248.00
2018-09-23T07:44:56.153Z,240.00
2018-09-23T07:45:56.178Z,236.00
2018-09-23T07:46:55.998Z,252.00
2018-09-23T07:47:56.062Z,280.00
2018-09-23T07:48:55.848Z,304.00
2018-09-23T07:49:55.797Z,284.00
2018-09-23T07:50:55.694Z,268.00
2018-09-23T07:51:55.709Z,252.00
2018-09-23T07:52:55.540Z,256.00
2018-09-23T07:53:55.516Z,272.00
2018-09-23T07:54:55.384Z,280.00
2018-09-23T07:55:55.333Z,288.00
2018-09-23T07:56:55.229Z,268.00
2018-09-23T07:57:55.238Z,244.00
2018-09-23T07:58:55.076Z,248.00
2018-09-23T07:59:55.048Z,244.00
2018-09-23T08:00:54.921Z,252.00
2018-09-23T08:01:54.958Z,272.00
2018-09-23T08:02:54.765Z,296.00
2018-09-23T08:03:54.767Z,312.00
2018-09-23T08:04:54.618Z,300.00
2018-09-23T08:05:54.572Z,280.00
2018-09-23T08:06:54.457Z,264.00
2018-09-23T08:07:54.487Z,256.00
2018-09-23T08:08:54.303Z,236.00
2018-09-23T08:09:54.301Z,236.00
2018-09-23T08:10:54.149Z,260.00
2018-09-23T08:11:54.214Z,272.00
2018-09-23T08:12:54.114Z,288.00
2018-09-23T08:13:54.234Z,300.00
2018-09-23T08:14:54.382Z,300.00
2018-09-23T08:15:53.930Z,256.00
2018-09-23T08:16:53.688Z,244.00
2018-09-23T08:17:53.682Z,248.00
2018-09-23T08:18:53.534Z,276.00
2018-09-23T08:19:53.594Z,300.00
2018-09-23T08:20:53.389Z,284.00
2018-09-23T08:21:53.404Z,292.00
2018-09-23T08:22:53.238Z,312.00
2018-09-23T08:23:53.210Z,340.00
2018-09-23T08:24:53.079Z,372.00
2018-09-23T08:25:53.023Z,384.00
2018-09-23T08:26:52.923Z,372.00
2018-09-23T08:27:52.895Z,356.00
2018-09-23T08:28:52.820Z,360.00
2018-09-23T08:29:52.743Z,400.00
2018-09-23T08:30:52.614Z,440.00
2018-09-23T08:31:52.651Z,448.00
2018-09-23T08:32:52.520Z,440.00
2018-09-23T08:33:52.460Z,432.00
2018-09-23T08:34:52.307Z,396.00
2018-09-23T08:35:52.266Z,356.00
2018-09-23T08:36:52.158Z,340.00
2018-09-23T08:37:52.182Z,340.00
2018-09-23T08:38:52.006Z,348.00
2018-09-23T08:39:52.013Z,368.00
2018-09-23T08:40:51.855Z,420.00
2018-09-23T08:41:51.804Z,496.00
2018-09-23T08:42:51.717Z,608.00
2018-09-23T08:43:51.718Z,712.00
2018-09-23T08:44:51.543Z,776.00
2018-09-23T08:45:51.473Z,600.00
2018-09-23T08:46:51.392Z,544.00
2018-09-23T08:47:51.438Z,548.00
2018-09-23T08:48:51.241Z,468.00
2018-09-23T08:49:51.237Z,408.00
2018-09-23T08:50:51.086Z,408.00
2018-09-23T08:51:51.067Z,444.00
2018-09-23T08:52:50.931Z,464.00
2018-09-23T08:53:50.957Z,484.00
2018-09-23T08:54:50.778Z,500.00
2018-09-23T08:55:50.773Z,516.00
2018-09-23T08:56:50.626Z,524.00
2018-09-23T08:57:50.652Z,480.00
2018-09-23T08:58:50.475Z,496.00
2018-09-23T08:59:50.487Z,536.00
2018-09-23T09:00:50.323Z,556.00
2018-09-23T09:01:50.294Z,560.00
2018-09-23T09:02:50.175Z,548.00
2018-09-23T09:03:50.338Z,520.00
2018-09-23T09:04:50.019Z,496.00
2018-09-23T09:05:49.949Z,480.00
2018-09-23T09:06:49.866Z,476.00
2018-09-23T09:07:49.822Z,492.00
2018-09-23T09:08:49.715Z,532.00
2018-09-23T09:09:49.734Z,604.00
2018-09-23T09:10:49.564Z,672.00
2018-09-23T09:11:49.566Z,772.00
2018-09-23T09:12:49.415Z,912.00
2018-09-23T09:13:49.455Z,752.00
2018-09-23T09:14:49.260Z,692.00
2018-09-23T09:15:49.263Z,692.00
2018-09-23T09:16:49.109Z,860.00
2018-09-23T09:17:49.072Z,1008.00
2018-09-23T09:18:49.158Z,1136.00
2018-09-23T09:19:48.982Z,1144.00
2018-09-23T09:20:48.805Z,1536.00
2018-09-23T09:21:48.794Z,1452.00
2018-09-23T09:22:48.650Z,1012.00
2018-09-23T09:23:48.594Z,3012.00
2018-09-23T09:24:48.503Z,1108.00
2018-09-23T09:25:48.509Z,1084.00
2018-09-23T09:26:48.410Z,1056.00
2018-09-23T09:27:48.320Z,980.00
2018-09-23T09:28:48.205Z,1892.00
2018-09-23T09:29:48.133Z,2288.00
2018-09-23T09:30:48.049Z,1052.00
2018-09-23T09:31:48.042Z,984.00
2018-09-23T09:32:47.918Z,976.00
2018-09-23T09:33:47.847Z,892.00
2018-09-23T09:34:47.751Z,992.00
2018-09-23T09:35:47.758Z,808.00
2018-09-23T09:36:47.598Z,644.00
2018-09-23T09:37:47.567Z,628.00
2018-09-23T09:38:47.448Z,512.00
2018-09-23T09:39:47.478Z,468.00
2018-09-23T09:40:47.297Z,452.00
2018-09-23T09:41:47.291Z,488.00
2018-09-23T09:42:47.147Z,388.00
2018-09-23T09:43:47.094Z,364.00
2018-09-23T09:44:46.998Z,416.00
2018-09-23T09:45:47.007Z,532.00
2018-09-23T09:46:46.846Z,520.00
2018-09-23T09:47:46.816Z,508.00
2018-09-23T09:48:46.741Z,452.00
2018-09-23T09:49:46.727Z,424.00
2018-09-23T09:50:46.548Z,452.00
2018-09-23T09:51:46.541Z,444.00
2018-09-23T09:52:46.399Z,452.00
2018-09-23T09:53:46.344Z,484.00
2018-09-23T09:54:46.248Z,508.00
2018-09-23T09:55:46.254Z,520.00
2018-09-23T09:56:46.098Z,496.00
2018-09-23T09:57:46.065Z,524.00
2018-09-23T09:58:45.950Z,540.00
2018-09-23T09:59:45.980Z,544.00
2018-09-23T10:00:45.799Z,616.00
2018-09-23T10:01:45.783Z,556.00
2018-09-23T10:02:45.648Z,452.00
2018-09-23T10:03:45.659Z,504.00
2018-09-23T10:04:45.499Z,500.00
2018-09-23T10:05:45.507Z,512.00
2018-09-23T10:06:45.355Z,544.00
2018-09-23T10:07:45.312Z,596.00
2018-09-23T10:08:45.208Z,636.00
2018-09-23T10:09:45.225Z,680.00
2018-09-23T10:10:45.054Z,608.00
2018-09-23T10:11:45.036Z,524.00
2018-09-23T10:12:44.903Z,604.00
2018-09-23T10:13:44.946Z,656.00
2018-09-23T10:14:44.751Z,692.00
2018-09-23T10:15:44.749Z,668.00
2018-09-23T10:16:44.601Z,652.00
2018-09-23T10:17:44.564Z,584.00
2018-09-23T10:18:44.456Z,464.00
2018-09-23T10:19:44.519Z,412.00
2018-09-23T10:20:44.304Z,388.00
2018-09-23T10:21:44.280Z,368.00
2018-09-23T10:22:44.678Z,300.00
2018-09-23T10:23:44.307Z,280.00
2018-09-23T10:24:44.008Z,300.00
2018-09-23T10:25:44.000Z,300.00
2018-09-23T10:26:43.854Z,324.00
2018-09-23T10:27:43.811Z,344.00
2018-09-23T10:28:43.707Z,340.00
2018-09-23T10:29:43.764Z,336.00
2018-09-23T10:30:43.556Z,356.00
2018-09-23T10:31:43.607Z,336.00
2018-09-23T10:32:43.450Z,292.00
2018-09-23T10:33:43.439Z,344.00
2018-09-23T10:34:43.260Z,372.00
2018-09-23T10:35:43.249Z,412.00
2018-09-23T10:36:43.111Z,384.00
2018-09-23T10:37:43.061Z,360.00
2018-09-23T10:38:42.967Z,332.00
2018-09-23T10:39:42.972Z,344.00
2018-09-23T10:40:42.811Z,344.00
2018-09-23T10:41:42.778Z,336.00
2018-09-23T10:42:42.671Z,372.00
2018-09-23T10:43:42.686Z,392.00
2018-09-23T10:44:42.530Z,472.00
2018-09-23T10:45:42.500Z,612.00
2018-09-23T10:46:42.369Z,764.00
2018-09-23T10:47:42.407Z,784.00
2018-09-23T10:48:42.222Z,776.00
2018-09-23T10:49:42.223Z,904.00
2018-09-23T10:50:42.068Z,852.00
2018-09-23T10:51:42.021Z,696.00
2018-09-23T10:52:41.923Z,592.00
2018-09-23T10:53:41.943Z,600.00
2018-09-23T10:54:41.770Z,676.00
2018-09-23T10:55:41.750Z,784.00
2018-09-23T10:56:41.625Z,932.00
2018-09-23T10:57:41.654Z,1392.00
2018-09-23T10:58:41.474Z,1060.00
2018-09-23T10:59:41.464Z,1112.00
2018-09-23T11:00:41.326Z,1036.00
2018-09-23T11:01:41.272Z,1032.00
2018-09-23T11:02:41.177Z,1132.00
2018-09-23T11:03:41.242Z,996.00
2018-09-23T11:04:41.026Z,824.00
2018-09-23T11:05:40.992Z,896.00
2018-09-23T11:06:40.883Z,896.00
2018-09-23T11:07:40.903Z,1052.00
2018-09-23T11:08:40.736Z,944.00
2018-09-23T11:09:40.755Z,792.00
2018-09-23T11:10:40.588Z,712.00
2018-09-23T11:11:40.624Z,840.00
2018-09-23T11:12:40.439Z,868.00
2018-09-23T11:13:40.433Z,688.00
2018-09-23T11:14:40.292Z,528.00
2018-09-23T11:15:40.240Z,560.00
2018-09-23T11:16:40.145Z,588.00
2018-09-23T11:17:40.149Z,600.00
2018-09-23T11:18:39.999Z,524.00
2018-09-23T11:19:39.959Z,512.00
2018-09-23T11:20:39.848Z,496.00
2018-09-23T11:21:39.869Z,452.00
2018-09-23T11:22:39.702Z,412.00
2018-09-23T11:23:39.680Z,372.00
2018-09-23T11:24:39.560Z,384.00
2018-09-23T11:25:39.591Z,340.00
2018-09-23T11:26:39.407Z,348.00
2018-09-23T11:27:39.399Z,368.00
2018-09-23T11:28:39.259Z,396.00
2018-09-23T11:29:39.208Z,368.00
2018-09-23T11:30:39.176Z,380.00
2018-09-23T11:31:39.121Z,396.00
2018-09-23T11:32:38.965Z,384.00
2018-09-23T11:33:38.926Z,420.00
2018-09-23T11:34:38.816Z,492.00
2018-09-23T11:35:38.837Z,504.00
2018-09-23T11:36:38.669Z,472.00
2018-09-23T11:37:38.647Z,524.00
2018-09-23T11:38:38.687Z,584.00
2018-09-23T11:39:38.559Z,496.00
2018-09-23T11:40:38.374Z,504.00
2018-09-23T11:41:38.368Z,536.00
2018-09-23T11:42:38.232Z,520.00
2018-09-23T11:43:38.176Z,552.00
2018-09-23T11:44:38.080Z,592.00
2018-09-23T11:45:38.086Z,592.00
2018-09-23T11:46:37.933Z,652.00
2018-09-23T11:47:37.897Z,684.00
2018-09-23T11:48:37.786Z,700.00
2018-09-23T11:49:37.805Z,672.00
2018-09-23T11:50:37.636Z,604.00
2018-09-23T11:51:37.615Z,584.00
2018-09-23T11:52:37.492Z,600.00
2018-09-23T11:53:37.528Z,580.00
2018-09-23T11:54:37.342Z,568.00
2018-09-23T11:55:37.336Z,608.00
2018-09-23T11:56:37.199Z,648.00
2018-09-23T11:57:37.144Z,644.00
2018-09-23T11:58:37.048Z,572.00
2018-09-23T11:59:37.060Z,476.00
2018-09-23T12:00:36.902Z,436.00
2018-09-23T12:01:36.864Z,404.00
2018-09-23T12:02:36.757Z,404.00
2018-09-23T12:03:36.775Z,368.00
2018-09-23T12:04:36.670Z,364.00
2018-09-23T12:05:36.584Z,384.00
2018-09-23T12:06:36.460Z,376.00
2018-09-23T12:07:36.496Z,404.00
2018-09-23T12:08:36.315Z,432.00
2018-09-23T12:09:36.304Z,488.00
2018-09-23T12:10:36.168Z,584.00
2018-09-23T12:11:36.113Z,680.00
2018-09-23T12:12:36.023Z,892.00
2018-09-23T12:13:36.024Z,844.00
2018-09-23T12:14:35.872Z,952.00
2018-09-23T12:15:35.885Z,1000.00
2018-09-23T12:16:35.728Z,1032.00
2018-09-23T12:17:35.743Z,1184.00
2018-09-23T12:18:35.578Z,1280.00
2018-09-23T12:19:35.611Z,1068.00
2018-09-23T12:20:35.436Z,1188.00
2018-09-23T12:21:35.461Z,1228.00
2018-09-23T12:22:35.401Z,908.00
2018-09-23T12:23:35.273Z,668.00
2018-09-23T12:24:35.147Z,588.00
2018-09-23T12:25:35.253Z,772.00
2018-09-23T12:26:35.004Z,1116.00
2018-09-23T12:27:34.920Z,1068.00
2018-09-23T12:28:34.853Z,1176.00
2018-09-23T12:29:34.852Z,1072.00
2018-09-23T12:30:34.702Z,1592.00
2018-09-23T12:31:34.630Z,1684.00
2018-09-23T12:32:34.558Z,1180.00
2018-09-23T12:33:34.520Z,1112.00
2018-09-23T12:34:34.409Z,1308.00
2018-09-23T12:35:34.433Z,1304.00
2018-09-23T12:36:34.268Z,1184.00
2018-09-23T12:37:34.198Z,1544.00
2018-09-23T12:38:34.147Z,2132.00
2018-09-23T12:39:34.065Z,1112.00
2018-09-23T12:40:34.057Z,1128.00
2018-09-23T12:41:33.908Z,1104.00
2018-09-23T12:42:33.865Z,908.00
2018-09-23T12:43:33.758Z,900.00
2018-09-23T12:44:33.776Z,936.00
2018-09-23T12:45:33.612Z,860.00
2018-09-23T12:46:33.585Z,920.00
2018-09-23T12:47:33.464Z,792.00
2018-09-23T12:48:33.499Z,1040.00
2018-09-23T12:49:33.323Z,1244.00